Terminal Aerodrome Forecast
Issued by NWS

Current Version | Previous Version | Graphics & Text | Print | Product List | Glossary On
Versions: 1 2 3 4 5 6 7 8 9 10 11 12 13 14 15 16 17 18
000
FTUS41 KPBZ 241700
TAFMGW
TAF
KMGW 241728Z 2418/2518 36008KT P6SM BKN040
     FM242300 35004KT P6SM SCT040
     FM250600 36002KT 4SM BR SKC
     FM251300 VRB03KT P6SM SKC=

USA.gov is the U.S. government's official web portal to all federal, state and local government web resources and services.